Eolia, Missouri
Current Conditions -  °F | °C
As of 6:55 AM on Thursday 30 Oct 2014 (Local Time) from KPPQ Reporting Station
Broken Clouds Broken Clouds  
Wind Chill: 35°   Ceiling: 9500
Heat Index: 39°   Visibility: 10mi
Dew Point: 36°   Wind: 5mph
Humidity: 88%   Direction: 150°SSE
Pressure: 30.13"   Gusts: NA
Location:  39.24°N, 91.01°W
Report Text: KPPQ 301155Z AUTO 15004KT 10SM BKN095 BKN110 04/02 A3013 RMK AO2 T00380020 10038 20009
Loading
Personal Weather Stations






























Interactive Weather Map
Tropical Storm Tracking
New forecast layout! Learn more

10-Day Weather Forecast

Advertisements
Track Severe Weather on mobile